Time;durP1;ratioP1;P1;durP2;ratioP2;P2;SDS_P1;SDS_P2;PMS_P1;PMS_P2;Temp;Humidity;BMP_temperature;BMP_pressure;BME280_temperature;BME280_humidity;BME280_pressure;Samples;Min_cycle;Max_cycle;Signal;HPM_P1;HPM_P2
2024/03/10 00:00:08;;;;;;;;;;;;;;;19.86;44.39;100095.97;2067371;28;6117;-66
2024/03/10 00:01:09;;;;;;;;;;;;;;;19.87;44.45;100091.69;2066174;28;2176;-67
2024/03/10 00:02:10;;;;;;;;;;;;;;;19.86;44.27;100084.47;2067086;28;2251;-67
2024/03/10 00:03:12;;;;;;;;;;;;;;;19.87;44.41;100091.69;2067698;28;1945;-67
2024/03/10 00:04:13;;;;;;;;;;;;;;;19.85;44.38;100089.47;2068183;28;1628;-67
2024/03/10 00:05:15;;;;;;;;;;;;;;;19.86;44.28;100095.97;2068797;28;2148;-67
2024/03/10 00:06:17;;;;;;;;;;;;;;;19.85;44.31;100089.47;2067482;28;2099;-67
2024/03/10 00:07:19;;;;;;;;;;;;;;;19.84;44.24;100093.03;2069041;28;2153;-68
2024/03/10 00:08:20;;;;;;;;;;;;;;;19.84;44.12;100093.03;2066332;28;2166;-68
2024/03/10 00:09:21;;;;;;;;;;;;;;;19.83;44.26;100091.53;2067450;28;2260;-67
2024/03/10 00:10:24;;;;;;;;;;;;;;;19.84;44.34;100093.03;2066650;28;2107;-67
2024/03/10 00:11:26;;;;;;;;;;;;;;;19.83;44.34;100088.66;2068811;28;2186;-67
2024/03/10 00:12:27;;;;;;;;;;;;;;;19.83;44.26;100091.53;2068361;28;2094;-67
2024/03/10 00:13:29;;;;;;;;;;;;;;;19.82;44.39;100090.81;2066532;28;2247;-67
2024/03/10 00:14:30;;;;;;;;;;;;;;;19.82;44.40;100087.94;2067630;28;2334;-67
2024/03/10 00:15:31;;;;;;;;;;;;;;;19.83;44.28;100091.53;2067047;28;2178;-67
2024/03/10 00:16:33;;;;;;;;;;;;;;;19.83;44.27;100091.53;2065485;28;2257;-67
2024/03/10 00:17:35;;;;;;;;;;;;;;;19.81;44.38;100088.59;2066880;28;2144;-67
2024/03/10 00:18:37;;;;;;;;;;;;;;;19.81;44.24;100083.59;2065581;28;2307;-67
2024/03/10 00:19:38;;;;;;;;;;;;;;;19.82;44.34;100078.56;2067397;28;2220;-67
2024/03/10 00:20:40;;;;;;;;;;;;;;;19.81;44.29;100077.84;2068579;28;2129;-67
2024/03/10 00:21:41;;;;;;;;;;;;;;;19.81;44.46;100082.84;2066424;28;2182;-67
2024/03/10 00:22:42;;;;;;;;;;;;;;;19.81;44.33;100082.84;2066972;28;2152;-67
2024/03/10 00:23:48;;;;;;;;;;;;;;;19.81;44.31;100080.72;2069442;28;2299;-66
2024/03/10 00:24:50;;;;;;;;;;;;;;;19.81;44.34;100094.31;2068533;28;2720;-67
2024/03/10 00:25:51;;;;;;;;;;;;;;;19.82;44.36;100087.19;2066771;28;2358;-67
2024/03/10 00:26:53;;;;;;;;;;;;;;;19.80;44.43;100075.63;2069328;28;2174;-67
2024/03/10 00:27:54;;;;;;;;;;;;;;;19.79;44.24;100083.50;2066699;28;2280;-67
2024/03/10 00:28:55;;;;;;;;;;;;;;;19.81;44.34;100088.59;2068951;28;2190;-67
2024/03/10 00:29:57;;;;;;;;;;;;;;;19.80;44.34;100084.25;2068737;28;2162;-67
2024/03/10 00:30:59;;;;;;;;;;;;;;;19.78;44.31;100081.31;2068381;28;6223;-67
2024/03/10 00:32:00;;;;;;;;;;;;;;;19.79;44.34;100091.38;2068801;28;2115;-67
2024/03/10 00:33:02;;;;;;;;;;;;;;;19.78;44.27;100084.19;2069766;28;2142;-67
2024/03/10 00:34:05;;;;;;;;;;;;;;;19.77;44.37;100076.94;2068032;28;2383;-67
2024/03/10 00:35:07;;;;;;;;;;;;;;;19.76;44.38;100081.22;2068822;28;2287;-67
2024/03/10 00:36:08;;;;;;;;;;;;;;;19.77;44.29;100085.56;2068988;28;2240;-67
2024/03/10 00:37:11;;;;;;;;;;;;;;;19.77;44.38;100076.94;2068404;28;2232;-67
2024/03/10 00:38:12;;;;;;;;;;;;;;;19.77;44.31;100088.44;2069203;28;2216;-67
2024/03/10 00:39:14;;;;;;;;;;;;;;;19.76;44.37;100087.69;2066193;28;2248;-67
2024/03/10 00:40:16;;;;;;;;;;;;;;;19.76;44.32;100092.72;2068297;28;2276;-67
2024/03/10 00:41:18;;;;;;;;;;;;;;;19.76;44.27;100089.84;2068659;28;2472;-67
2024/03/10 00:42:20;;;;;;;;;;;;;;;19.76;44.15;100081.94;2069251;28;2342;-67
2024/03/10 00:43:22;;;;;;;;;;;;;;;19.76;44.28;100092.72;2067840;28;2271;-67
2024/03/10 00:44:23;;;;;;;;;;;;;;;19.74;44.23;100084.75;2067344;28;2142;-69
2024/03/10 00:45:25;;;;;;;;;;;;;;;19.75;44.31;100074.03;2067837;28;2202;-67
2024/03/10 00:46:26;;;;;;;;;;;;;;;19.74;44.36;100081.16;2068934;28;2295;-67
2024/03/10 00:47:27;;;;;;;;;;;;;;;19.73;44.35;100088.31;2067215;28;2217;-67
2024/03/10 00:48:29;;;;;;;;;;;;;;;19.74;44.38;100078.28;2068169;28;2210;-67
2024/03/10 00:49:30;;;;;;;;;;;;;;;19.74;44.35;100076.13;2069252;28;2244;-67
2024/03/10 00:50:32;;;;;;;;;;;;;;;19.75;44.33;100074.03;2068689;28;2141;-67
2024/03/10 00:51:35;;;;;;;;;;;;;;;19.75;44.17;100080.50;2067855;28;2146;-67
2024/03/10 00:52:37;;;;;;;;;;;;;;;19.74;44.34;100073.25;2067549;28;2201;-67
2024/03/10 00:53:39;;;;;;;;;;;;;;;19.75;44.32;100074.03;2067880;28;2058;-67
2024/03/10 00:54:40;;;;;;;;;;;;;;;19.75;44.28;100079.75;2066403;28;2256;-67
2024/03/10 00:55:44;;;;;;;;;;;;;;;19.74;44.28;100081.16;2068646;28;2303;-67
2024/03/10 00:56:46;;;;;;;;;;;;;;;19.74;44.31;100084.00;2069121;28;2259;-67
2024/03/10 00:57:47;;;;;;;;;;;;;;;19.73;44.32;100083.28;2067655;28;1695;-67
2024/03/10 00:58:48;;;;;;;;;;;;;;;19.72;44.49;100076.06;2069812;28;2140;-67
2024/03/10 00:59:51;;;;;;;;;;;;;;;19.73;44.16;100076.81;2068625;28;1889;-67
2024/03/10 01:00:53;;;;;;;;;;;;;;;19.72;44.31;100081.06;2069161;28;6002;-67
2024/03/10 01:01:54;;;;;;;;;;;;;;;19.69;44.29;100068.78;2070392;28;1708;-67
2024/03/10 01:02:56;;;;;;;;;;;;;;;19.70;44.26;100078.88;2069746;28;1653;-67
2024/03/10 01:03:57;;;;;;;;;;;;;;;19.70;44.32;100070.25;2068718;28;1918;-67
2024/03/10 01:04:59;;;;;;;;;;;;;;;19.71;44.24;100071.00;2066430;28;2196;-67
2024/03/10 01:06:01;;;;;;;;;;;;;;;19.70;44.33;100067.38;2067862;28;2275;-67
2024/03/10 01:07:03;;;;;;;;;;;;;;;19.69;44.25;100071.66;2068760;28;2110;-67
2024/03/10 01:08:05;;;;;;;;;;;;;;;19.70;44.33;100069.50;2068624;28;2205;-67
2024/03/10 01:09:08;;;;;;;;;;;;;;;19.70;44.13;100073.13;2066501;28;2499;-67
2024/03/10 01:10:11;;;;;;;;;;;;;;;19.70;44.29;100069.50;2065665;28;2109;-67
2024/03/10 01:11:13;;;;;;;;;;;;;;;19.71;44.28;100068.13;2068867;28;2306;-67
2024/03/10 01:12:14;;;;;;;;;;;;;;;19.69;44.29;100074.50;2067195;28;2320;-67
2024/03/10 01:13:16;;;;;;;;;;;;;;;19.69;44.29;100070.91;2069006;28;2224;-67
2024/03/10 01:14:17;;;;;;;;;;;;;;;19.69;44.31;100065.91;2067612;28;2459;-67
2024/03/10 01:15:19;;;;;;;;;;;;;;;19.69;44.22;100070.91;2067589;28;2604;-67
2024/03/10 01:16:20;;;;;;;;;;;;;;;19.70;44.36;100069.50;2067588;28;2338;-67
2024/03/10 01:17:22;;;;;;;;;;;;;;;19.67;44.26;100069.41;2068183;28;2130;-67
2024/03/10 01:18:23;;;;;;;;;;;;;;;19.67;44.29;100063.66;2067352;28;2166;-67
2024/03/10 01:19:26;;;;;;;;;;;;;;;19.67;44.31;100063.66;2068892;28;2543;-67
2024/03/10 01:20:27;;;;;;;;;;;;;;;19.67;44.27;100062.94;2067705;28;2145;-67
2024/03/10 01:21:29;;;;;;;;;;;;;;;19.66;44.32;100059.31;2068698;28;2174;-67
2024/03/10 01:22:31;;;;;;;;;;;;;;;19.66;44.17;100055.72;2068941;28;2182;-67
2024/03/10 01:23:33;;;;;;;;;;;;;;;19.65;44.21;100057.84;2067844;28;2146;-67
2024/03/10 01:24:34;;;;;;;;;;;;;;;19.66;44.30;100049.97;2067556;28;2143;-67
2024/03/10 01:25:35;;;;;;;;;;;;;;;19.65;44.35;100055.00;2066999;28;2292;-67
2024/03/10 01:26:37;;;;;;;;;;;;;;;19.67;44.37;100045.69;2068709;28;2528;-67
2024/03/10 01:27:38;;;;;;;;;;;;;;;19.66;44.31;100047.84;2066960;28;2146;-67
2024/03/10 01:28:39;;;;;;;;;;;;;;;19.66;44.33;100049.97;2067609;28;2518;-67
2024/03/10 01:29:41;;;;;;;;;;;;;;;19.65;44.21;100037.00;2068700;28;2109;-67
2024/03/10 01:30:42;;;;;;;;;;;;;;;19.66;44.13;100038.47;2067456;28;6082;-67
2024/03/10 01:31:44;;;;;;;;;;;;;;;19.65;44.08;100043.50;2067779;28;2348;-67
2024/03/10 01:32:46;;;;;;;;;;;;;;;19.65;44.18;100037.75;2074930;28;2168;-67
2024/03/10 01:33:48;;;;;;;;;;;;;;;19.66;44.30;100039.22;2075167;28;2185;-67
2024/03/10 01:34:50;;;;;;;;;;;;;;;19.69;44.06;100037.19;2067516;28;2303;-67
2024/03/10 01:35:51;;;;;;;;;;;;;;;19.71;44.23;100033.66;2067728;28;2204;-67
2024/03/10 01:36:53;;;;;;;;;;;;;;;19.71;44.13;100039.41;2066619;28;2479;-69
2024/03/10 01:37:54;;;;;;;;;;;;;;;19.71;44.16;100033.66;2068753;28;2219;-69
2024/03/10 01:38:56;;;;;;;;;;;;;;;19.70;44.27;100030.03;2067938;28;2081;-67
2024/03/10 01:39:57;;;;;;;;;;;;;;;19.71;44.25;100033.66;2067344;28;2146;-67
2024/03/10 01:40:59;;;;;;;;;;;;;;;19.72;44.25;100026.50;2068301;28;2529;-67
2024/03/10 01:42:00;;;;;;;;;;;;;;;19.72;44.26;100026.50;2068431;28;2200;-67
2024/03/10 01:43:02;;;;;;;;;;;;;;;19.73;44.20;100036.59;2066435;28;2256;-67
2024/03/10 01:44:05;;;;;;;;;;;;;;;19.74;44.16;100026.56;2068073;28;2213;-67
2024/03/10 01:45:07;;;;;;;;;;;;;;;19.74;44.16;100029.44;2068773;28;2113;-67
2024/03/10 01:46:10;;;;;;;;;;;;;;;19.74;44.30;100020.81;2068095;28;2570;-67
2024/03/10 01:47:11;;;;;;;;;;;;;;;19.75;44.35;100028.06;2068510;28;2079;-67
2024/03/10 01:48:13;;;;;;;;;;;;;;;19.76;44.25;100032.38;2068305;28;2185;-67
2024/03/10 01:49:14;;;;;;;;;;;;;;;19.76;44.36;100026.66;2066785;28;2263;-66
2024/03/10 01:50:16;;;;;;;;;;;;;;;19.76;44.25;100030.25;2068952;28;1576;-68
2024/03/10 01:51:18;;;;;;;;;;;;;;;19.75;44.39;100028.78;2069771;28;2178;-67
2024/03/10 01:52:19;;;;;;;;;;;;;;;19.76;44.48;100023.78;2068213;28;2047;-67
2024/03/10 01:53:21;;;;;;;;;;;;;;;19.75;44.47;100020.16;2067408;28;2207;-69
2024/03/10 01:54:28;;;;;;;;;;;;;;;19.76;44.52;100018.03;2068350;28;2216;-68
2024/03/10 01:55:29;;;;;;;;;;;;;;;19.75;44.46;100017.28;2066062;28;2287;-68
2024/03/10 01:56:31;;;;;;;;;;;;;;;19.75;44.49;100011.56;2067456;28;2160;-68
2024/03/10 01:57:33;;;;;;;;;;;;;;;19.76;44.40;100023.78;2069668;28;2166;-67
2024/03/10 01:58:36;;;;;;;;;;;;;;;19.76;44.38;100009.41;2068866;28;1644;-67
2024/03/10 01:59:38;;;;;;;;;;;;;;;19.75;44.48;100002.94;2067903;28;1627;-67
2024/03/10 02:00:39;;;;;;;;;;;;;;;19.76;44.44;100006.53;2066434;28;6262;-67
2024/03/10 02:01:41;;;;;;;;;;;;;;;19.76;44.16;100015.88;2068271;28;1491;-67
2024/03/10 02:02:42;;;;;;;;;;;;;;;19.76;44.40;100003.66;2066905;28;1725;-67
2024/03/10 02:03:44;;;;;;;;;;;;;;;19.75;44.44;100005.81;2068173;28;2397;-67
2024/03/10 02:04:45;;;;;;;;;;;;;;;19.75;44.54;100005.81;2069145;28;1918;-69
2024/03/10 02:05:47;;;;;;;;;;;;;;;19.76;44.51;100006.53;2068219;28;1986;-67
2024/03/10 02:06:50;;;;;;;;;;;;;;;19.76;44.46;100012.28;2068785;28;2307;-68
2024/03/10 02:07:51;;;;;;;;;;;;;;;19.75;44.38;100014.44;2067718;28;2352;-68
2024/03/10 02:08:54;;;;;;;;;;;;;;;19.75;44.45;100005.81;2066490;28;2223;-67
2024/03/10 02:09:56;;;;;;;;;;;;;;;19.76;44.43;100006.53;2067492;28;2219;-67
2024/03/10 02:10:57;;;;;;;;;;;;;;;19.75;44.39;100005.81;2067191;28;2279;-67
2024/03/10 02:11:59;;;;;;;;;;;;;;;19.76;44.45;100012.28;2068264;28;2240;-67
2024/03/10 02:13:01;;;;;;;;;;;;;;;19.76;44.47;100012.28;2067742;28;2130;-67
2024/03/10 02:14:03;;;;;;;;;;;;;;;19.75;44.46;100007.94;2068420;28;2141;-67
2024/03/10 02:15:06;;;;;;;;;;;;;;;19.74;44.48;100010.06;2067397;28;2104;-67
2024/03/10 02:16:10;;;;;;;;;;;;;;;19.75;44.21;100016.56;2066029;28;2213;-67
2024/03/10 02:17:14;;;;;;;;;;;;;;;19.74;44.57;100015.81;2068387;28;2422;-67
2024/03/10 02:18:17;;;;;;;;;;;;;;;19.74;44.46;100018.69;2066846;28;2205;-67
2024/03/10 02:19:18;;;;;;;;;;;;;;;19.73;44.18;100013.63;2067650;28;2574;-67
2024/03/10 02:20:20;;;;;;;;;;;;;;;19.74;44.43;100012.22;2067001;28;2205;-67
2024/03/10 02:21:22;;;;;;;;;;;;;;;19.74;44.46;100017.94;2067208;28;2087;-67
2024/03/10 02:22:24;;;;;;;;;;;;;;;19.74;44.41;100015.06;2066895;28;2131;-67
2024/03/10 02:23:44;;;;;;;;;;;;;;;19.72;44.44;100015.75;2067021;28;2131;-67
2024/03/10 02:24:47;;;;;;;;;;;;;;;19.72;44.45;100012.13;2067264;28;2154;-67
2024/03/10 02:25:52;;;;;;;;;;;;;;;19.72;44.57;100006.38;2065332;28;2217;-67
2024/03/10 02:26:53;;;;;;;;;;;;;;;19.71;44.45;100016.41;2066539;28;2346;-67
2024/03/10 02:27:55;;;;;;;;;;;;;;;19.71;44.53;100010.66;2066598;28;2170;-67
2024/03/10 02:29:14;;;;;;;;;;;;;;;19.72;44.61;100026.50;2065717;28;2126;-67
2024/03/10 02:47:18;;;;;;;;;;;;;;;19.65;44.62;100009.03;2066496;28;2191;-67
2024/03/10 02:48:20;;;;;;;;;;;;;;;19.65;44.43;100011.16;2066935;28;2574;-67
2024/03/10 02:49:21;;;;;;;;;;;;;;;19.64;44.59;100010.41;2067790;28;2379;-67
2024/03/10 02:50:23;;;;;;;;;;;;;;;19.62;44.74;100007.47;2066894;28;2067;-67
2024/03/10 02:51:26;;;;;;;;;;;;;;;19.64;44.53;100012.56;2066704;28;2055;-68
2024/03/10 02:52:27;;;;;;;;;;;;;;;19.65;44.65;100014.03;2067527;28;2185;-67
2024/03/10 02:53:29;;;;;;;;;;;;;;;19.67;44.42;100011.22;2068243;28;1672;-67
2024/03/10 02:54:30;;;;;;;;;;;;;;;19.66;44.46;100010.50;2066051;28;2131;-67
2024/03/10 02:55:32;;;;;;;;;;;;;;;19.67;44.62;100006.22;2066568;28;2376;-67
2024/03/10 02:56:34;;;;;;;;;;;;;;;19.67;44.65;100009.09;2066610;28;2303;-67
2024/03/10 02:57:35;;;;;;;;;;;;;;;19.67;44.46;100011.94;2067267;28;2331;-67
2024/03/10 02:58:39;;;;;;;;;;;;;;;19.69;44.54;100010.59;2067743;28;2366;-67
2024/03/10 02:59:40;;;;;;;;;;;;;;;19.70;44.53;100006.31;2066839;28;2319;-67
2024/03/10 03:00:41;;;;;;;;;;;;;;;19.69;44.66;99999.84;2067930;28;6156;-68
2024/03/10 03:01:43;;;;;;;;;;;;;;;19.70;44.55;100003.44;2065712;28;2069;-67
2024/03/10 03:02:44;;;;;;;;;;;;;;;19.71;44.68;100004.94;2068050;28;2103;-67
2024/03/10 03:03:45;;;;;;;;;;;;;;;19.71;44.66;99993.44;2066957;28;2197;-67
2024/03/10 03:04:47;;;;;;;;;;;;;;;19.73;44.78;99999.25;2066259;28;2286;-67
2024/03/10 03:05:48;;;;;;;;;;;;;;;19.72;44.81;100001.38;2067716;28;2206;-67
2024/03/10 03:06:49;;;;;;;;;;;;;;;19.72;44.69;100006.38;2067446;28;2169;-67
2024/03/10 03:07:51;;;;;;;;;;;;;;;19.72;44.77;100001.38;2067504;28;2007;-67
2024/03/10 03:08:54;;;;;;;;;;;;;;;19.73;44.61;99999.25;2068759;28;2072;-67
2024/03/10 03:09:55;;;;;;;;;;;;;;;19.71;44.85;99999.19;2067103;28;2193;-69
2024/03/10 03:10:57;;;;;;;;;;;;;;;19.72;44.87;100000.66;2066624;28;2140;-69
2024/03/10 03:11:58;;;;;;;;;;;;;;;19.72;44.83;100001.38;2066853;28;2003;-69
2024/03/10 03:12:59;;;;;;;;;;;;;;;19.72;44.81;99997.78;2067499;28;1755;-68
2024/03/10 03:14:01;;;;;;;;;;;;;;;19.72;44.61;100000.66;2067143;28;2017;-69
2024/03/10 03:15:04;;;;;;;;;;;;;;;19.73;44.91;100005.00;2067637;28;2305;-69
2024/03/10 03:16:05;;;;;;;;;;;;;;;19.72;44.90;100003.50;2066759;28;1936;-69
2024/03/10 03:17:06;;;;;;;;;;;;;;;19.73;44.87;100005.00;2067995;28;2016;-68
2024/03/10 03:18:08;;;;;;;;;;;;;;;19.72;44.84;100003.50;2067118;28;1976;-69
2024/03/10 03:19:13;;;;;;;;;;;;;;;19.71;44.88;100010.66;2066838;28;2019;-69
2024/03/10 03:20:17;;;;;;;;;;;;;;;19.69;44.84;100007.72;2067483;28;1980;-68
2024/03/10 03:21:19;;;;;;;;;;;;;;;19.70;44.94;100003.44;2067376;28;2020;-69
2024/03/10 03:22:21;;;;;;;;;;;;;;;19.70;44.79;100015.69;2068837;28;1951;-68
2024/03/10 03:23:22;;;;;;;;;;;;;;;19.69;44.85;99996.97;2068212;28;1953;-69
2024/03/10 03:24:24;;;;;;;;;;;;;;;19.71;44.90;100007.81;2066247;28;2165;-69
2024/03/10 03:25:25;;;;;;;;;;;;;;;19.71;44.82;99999.19;2067799;28;1979;-69
2024/03/10 03:26:27;;;;;;;;;;;;;;;19.70;44.79;99989.09;2066658;28;2195;-69
2024/03/10 03:27:28;;;;;;;;;;;;;;;19.69;44.82;99999.09;2067497;28;2313;-68
2024/03/10 03:28:30;;;;;;;;;;;;;;;19.70;44.87;100000.56;2067252;28;1957;-68
2024/03/10 03:29:31;;;;;;;;;;;;;;;19.68;44.82;99995.47;2068800;28;2000;-69
2024/03/10 03:30:33;;;;;;;;;;;;;;;19.68;44.93;100004.09;2067424;28;6270;-68
2024/03/10 03:31:34;;;;;;;;;;;;;;;19.67;44.83;99996.88;2067691;28;1936;-68
2024/03/10 03:32:35;;;;;;;;;;;;;;;19.69;44.87;99993.38;2069521;28;1928;-69
2024/03/10 03:33:39;;;;;;;;;;;;;;;19.69;44.83;99996.25;2065203;28;2039;-69
2024/03/10 03:34:41;;;;;;;;;;;;;;;19.69;44.78;100001.97;2067133;28;2099;-69
2024/03/10 03:35:42;;;;;;;;;;;;;;;19.69;44.87;99987.63;2068972;28;2012;-68
2024/03/10 03:36:44;;;;;;;;;;;;;;;19.69;44.95;99990.50;2067481;28;2039;-69
2024/03/10 03:37:45;;;;;;;;;;;;;;;19.69;44.92;99990.50;2068623;28;2175;-69
2024/03/10 03:38:48;;;;;;;;;;;;;;;19.69;44.92;99990.50;2067120;28;2133;-68
2024/03/10 03:39:49;;;;;;;;;;;;;;;19.69;44.84;99990.50;2067793;28;2621;-68
2024/03/10 03:40:50;;;;;;;;;;;;;;;19.69;45.01;99988.34;2066837;28;2000;-69
2024/03/10 03:41:52;;;;;;;;;;;;;;;19.69;45.08;99984.75;2067721;28;2094;-69
2024/03/10 03:42:53;;;;;;;;;;;;;;;19.70;44.89;99986.22;2067202;28;1954;-68
2024/03/10 03:43:55;;;;;;;;;;;;;;;19.70;45.00;99997.69;2067231;28;1996;-69
2024/03/10 03:44:56;;;;;;;;;;;;;;;19.72;45.00;99989.88;2068147;28;2295;-69
2024/03/10 03:45:57;;;;;;;;;;;;;;;19.73;45.01;99984.91;2066862;28;1981;-69
2024/03/10 03:46:59;;;;;;;;;;;;;;;19.75;44.96;99987.84;2068205;28;1924;-68
2024/03/10 03:48:04;;;;;;;;;;;;;;;19.76;44.80;99983.56;2067558;28;1976;-69
2024/03/10 03:49:06;;;;;;;;;;;;;;;19.77;44.98;99987.88;2066622;28;2003;-69
2024/03/10 03:50:08;;;;;;;;;;;;;;;19.78;44.88;99980.75;2067543;28;1984;-68
2024/03/10 03:51:09;;;;;;;;;;;;;;;19.79;44.87;99990.84;2068374;28;1996;-69
2024/03/10 03:52:10;;;;;;;;;;;;;;;19.80;44.80;99989.44;2066366;28;1880;-69
2024/03/10 03:53:12;;;;;;;;;;;;;;;19.80;44.83;99977.97;2067575;28;2197;-68
2024/03/10 03:54:13;;;;;;;;;;;;;;;19.80;44.78;99978.69;2066027;28;1654;-69
2024/03/10 03:55:15;;;;;;;;;;;;;;;19.81;44.87;99985.94;2067025;28;1628;-69
2024/03/10 03:56:16;;;;;;;;;;;;;;;19.81;44.77;99985.16;2068131;28;2034;-69
2024/03/10 03:57:18;;;;;;;;;;;;;;;19.82;44.87;99989.53;2067977;28;2098;-69
2024/03/10 03:58:21;;;;;;;;;;;;;;;19.80;44.79;99990.19;2069106;28;1725;-69
2024/03/10 03:59:22;;;;;;;;;;;;;;;19.78;44.97;99986.50;2068800;28;2027;-69
2024/03/10 04:00:24;;;;;;;;;;;;;;;19.76;44.98;99990.03;2068737;28;6058;-69
2024/03/10 04:01:25;;;;;;;;;;;;;;;19.77;44.95;99990.75;2070518;28;1668;-69
2024/03/10 04:02:26;;;;;;;;;;;;;;;19.75;45.09;99984.97;2068094;28;2294;-69
2024/03/10 04:03:29;;;;;;;;;;;;;;;19.75;44.99;99982.81;2069988;28;2189;-69
2024/03/10 04:04:30;;;;;;;;;;;;;;;19.75;45.00;99987.84;2068644;28;1724;-68
2024/03/10 04:05:32;;;;;;;;;;;;;;;19.75;45.02;99982.09;2068814;28;2062;-69
2024/03/10 04:06:34;;;;;;;;;;;;;;;19.77;45.02;99976.41;2067930;28;1697;-69
2024/03/10 04:07:35;;;;;;;;;;;;;;;19.79;45.06;99987.97;2068539;28;2118;-69
2024/03/10 04:08:36;;;;;;;;;;;;;;;19.80;44.94;99981.56;2068485;28;2146;-69
2024/03/10 04:09:38;;;;;;;;;;;;;;;19.80;44.91;99983.72;2068776;28;2053;-69
2024/03/10 04:10:39;;;;;;;;;;;;;;;19.80;44.98;99983.72;2069307;28;1937;-69
2024/03/10 04:11:40;;;;;;;;;;;;;;;19.80;44.85;99983.72;2067634;28;1620;-68
2024/03/10 04:12:42;;;;;;;;;;;;;;;19.81;44.96;99979.41;2067171;28;2019;-69
2024/03/10 04:13:43;;;;;;;;;;;;;;;19.81;44.82;99982.28;2068737;28;2055;-69
2024/03/10 04:14:45;;;;;;;;;;;;;;;19.82;44.84;99986.66;2069279;28;2004;-69
2024/03/10 04:15:46;;;;;;;;;;;;;;;19.80;44.88;99992.31;2068790;28;2230;-69
2024/03/10 04:16:48;;;;;;;;;;;;;;;19.82;44.92;99986.66;2069967;28;1554;-69
2024/03/10 04:17:49;;;;;;;;;;;;;;;19.81;44.82;99988.03;2068489;28;1952;-68
2024/03/10 04:18:51;;;;;;;;;;;;;;;19.80;45.20;99986.56;2070023;28;1952;-68
2024/03/10 04:19:52;;;;;;;;;;;;;;;19.81;45.00;99990.91;2066324;28;2058;-69
2024/03/10 04:20:54;;;;;;;;;;;;;;;19.80;44.93;99989.44;2068244;28;2200;-69
2024/03/10 04:21:56;;;;;;;;;;;;;;;19.79;45.03;99982.22;2069346;28;2138;-68
2024/03/10 04:22:58;;;;;;;;;;;;;;;19.79;45.02;99982.97;2068974;28;2173;-68
2024/03/10 04:23:59;;;;;;;;;;;;;;;19.78;45.04;99986.50;2068832;28;2124;-69
2024/03/10 04:25:00;;;;;;;;;;;;;;;19.78;44.99;99986.50;2067225;28;2164;-67
2024/03/10 04:26:02;;;;;;;;;;;;;;;19.78;45.10;99987.22;2068738;28;2206;-69
2024/03/10 04:27:04;;;;;;;;;;;;;;;19.78;45.12;99986.50;2069233;28;2313;-68
2024/03/10 04:28:05;;;;;;;;;;;;;;;19.77;45.19;99982.91;2068749;28;1980;-69
2024/03/10 04:29:08;;;;;;;;;;;;;;;19.77;45.10;99982.16;2068940;28;1723;-69
2024/03/10 04:30:11;;;;;;;;;;;;;;;19.77;45.04;99982.91;2066552;28;6445;-68
2024/03/10 04:31:13;;;;;;;;;;;;;;;19.78;45.12;99980.75;2067263;28;2134;-69
2024/03/10 04:32:14;;;;;;;;;;;;;;;19.77;45.22;99985.00;2069146;28;2026;-69
2024/03/10 04:33:16;;;;;;;;;;;;;;;19.78;45.05;99980.75;2069637;28;1633;-68
2024/03/10 04:34:17;;;;;;;;;;;;;;;19.77;45.15;99976.41;2068054;28;1976;-69
2024/03/10 04:35:19;;;;;;;;;;;;;;;19.77;45.13;99985.00;2069360;28;2223;-69
2024/03/10 04:36:21;;;;;;;;;;;;;;;19.78;45.23;99992.25;2069274;28;2036;-69
2024/03/10 04:37:22;;;;;;;;;;;;;;;19.78;45.17;99990.09;2066227;28;2026;-69
2024/03/10 04:38:24;;;;;;;;;;;;;;;19.78;45.13;99986.50;2070043;28;1664;-69
2024/03/10 04:39:25;;;;;;;;;;;;;;;19.79;45.16;99987.97;2067815;28;2081;-69
2024/03/10 04:40:27;;;;;;;;;;;;;;;19.79;45.05;99985.09;2067868;28;1913;-69
2024/03/10 04:41:28;;;;;;;;;;;;;;;19.80;44.99;99995.94;2069107;28;2154;-69
2024/03/10 04:42:30;;;;;;;;;;;;;;;19.81;45.10;99988.03;2067338;28;1925;-69
2024/03/10 04:43:32;;;;;;;;;;;;;;;19.81;44.87;99985.94;2068325;28;2098;-69
2024/03/10 04:44:33;;;;;;;;;;;;;;;19.82;45.09;99989.53;2067756;28;2296;-69
2024/03/10 04:45:34;;;;;;;;;;;;;;;19.82;45.09;99986.66;2067447;28;1885;-69
2024/03/10 04:46:36;;;;;;;;;;;;;;;19.83;45.09;99988.09;2067912;28;2337;-69
2024/03/10 04:47:38;;;;;;;;;;;;;;;19.83;44.98;99988.09;2068107;28;1929;-68
2024/03/10 04:48:39;;;;;;;;;;;;;;;19.80;44.99;99981.56;2067323;28;1906;-69
2024/03/10 04:49:43;;;;;;;;;;;;;;;19.81;45.13;99985.16;2066982;28;2067;-69
2024/03/10 04:50:44;;;;;;;;;;;;;;;19.82;44.96;99983.78;2066666;28;1809;-69
2024/03/10 04:51:45;;;;;;;;;;;;;;;19.83;44.98;99982.38;2068839;28;2168;-68
2024/03/10 04:52:47;;;;;;;;;;;;;;;19.83;44.99;99985.97;2068892;28;2157;-69
2024/03/10 04:53:50;;;;;;;;;;;;;;;19.83;45.13;99982.38;2068091;28;1936;-69
2024/03/10 04:54:52;;;;;;;;;;;;;;;19.83;45.09;99983.09;2067954;28;2159;-66
2024/03/10 04:55:53;;;;;;;;;;;;;;;19.83;45.02;99976.63;2066248;28;2019;-65
2024/03/10 04:56:54;;;;;;;;;;;;;;;19.84;45.06;99983.84;2068816;28;2133;-66
2024/03/10 04:57:56;;;;;;;;;;;;;;;19.82;45.03;99986.66;2068536;28;2197;-66
2024/03/10 04:58:57;;;;;;;;;;;;;;;19.86;45.11;99983.94;2068475;28;1635;-71
2024/03/10 05:00:08;;;;;;;;;;;;;;;19.86;45.00;99984.66;2066329;28;2016;-71
2024/03/10 05:01:10;;;;;;;;;;;;;;;19.87;44.91;99983.25;2067813;28;7057;-71
2024/03/10 05:02:11;;;;;;;;;;;;;;;19.88;45.08;99989.72;2068411;28;2043;-71
2024/03/10 05:03:12;;;;;;;;;;;;;;;19.87;44.98;99983.25;2069752;28;1964;-69
2024/03/10 05:04:14;;;;;;;;;;;;;;;19.87;45.01;99988.25;2068960;28;2035;-71
2024/03/10 05:05:16;;;;;;;;;;;;;;;19.87;44.88;99985.38;2069227;28;2035;-70
2024/03/10 05:06:17;;;;;;;;;;;;;;;19.88;44.94;99983.97;2068226;28;1995;-70
2024/03/10 05:07:19;;;;;;;;;;;;;;;19.88;44.98;99986.84;2067633;28;2180;-70
2024/03/10 05:08:20;;;;;;;;;;;;;;;19.88;44.90;99978.22;2068352;28;1878;-71
2024/03/10 05:09:22;;;;;;;;;;;;;;;19.89;44.92;99988.34;2069844;28;1814;-71
2024/03/10 05:10:23;;;;;;;;;;;;;;;19.88;44.91;99981.84;2070198;28;2047;-70
2024/03/10 05:11:24;;;;;;;;;;;;;;;19.89;44.95;99985.47;2067731;28;2296;-70
2024/03/10 05:12:26;;;;;;;;;;;;;;;19.89;44.87;99979.72;2068485;28;2370;-71
2024/03/10 05:13:27;;;;;;;;;;;;;;;19.90;44.91;99978.28;2067306;28;2160;-72
2024/03/10 05:14:28;;;;;;;;;;;;;;;19.90;44.79;99974.69;2068865;28;1980;-70
2024/03/10 05:15:30;;;;;;;;;;;;;;;19.90;45.06;99975.41;2068204;28;1956;-70
2024/03/10 05:16:31;;;;;;;;;;;;;;;19.90;44.91;99978.28;2069546;28;1897;-71
2024/03/10 05:17:33;;;;;;;;;;;;;;;19.92;44.88;99971.91;2074787;28;2042;-71
2024/03/10 05:18:34;;;;;;;;;;;;;;;19.91;45.04;99976.19;2076339;28;1673;-71
2024/03/10 05:19:39;;;;;;;;;;;;;;;19.91;45.06;99976.91;2068993;28;1628;-71
2024/03/10 05:20:40;;;;;;;;;;;;;;;19.90;44.98;99975.41;2066888;28;2132;-71
2024/03/10 05:21:45;;;;;;;;;;;;;;;19.91;45.01;99976.91;2069197;28;2678;-71
2024/03/10 05:22:47;;;;;;;;;;;;;;;19.92;44.89;99978.38;2068969;28;1988;-71
2024/03/10 05:23:48;;;;;;;;;;;;;;;19.92;44.96;99984.13;2067701;28;1992;-71
2024/03/10 05:24:50;;;;;;;;;;;;;;;19.91;44.95;99974.03;2067021;28;2150;-70
2024/03/10 05:25:51;;;;;;;;;;;;;;;19.92;44.88;99975.50;2069245;28;2184;-71
2024/03/10 05:26:53;;;;;;;;;;;;;;;19.92;45.06;99972.63;2069888;28;2068;-70
2024/03/10 05:27:54;;;;;;;;;;;;;;;19.90;45.08;99966.81;2067571;28;1933;-70
2024/03/10 05:28:55;;;;;;;;;;;;;;;19.91;44.99;99973.31;2068756;28;2125;-70
2024/03/10 05:29:57;;;;;;;;;;;;;;;19.90;44.94;99963.94;2068276;28;1728;-71
2024/03/10 05:30:58;;;;;;;;;;;;;;;19.90;45.01;99966.06;2068031;28;6205;-71
2024/03/10 05:32:00;;;;;;;;;;;;;;;19.92;45.09;99966.16;2066881;28;2185;-71
2024/03/10 05:33:01;;;;;;;;;;;;;;;19.92;45.04;99966.88;2069050;28;1849;-70
2024/03/10 05:34:03;;;;;;;;;;;;;;;19.91;45.00;99959.66;2067484;28;2035;-71
2024/03/10 05:35:05;;;;;;;;;;;;;;;19.91;44.98;99971.16;2067884;28;2141;-71
2024/03/10 05:36:07;;;;;;;;;;;;;;;19.91;44.95;99971.16;2068056;28;2186;-71
2024/03/10 05:37:09;;;;;;;;;;;;;;;19.92;44.94;99969.75;2068938;28;2051;-70
2024/03/10 05:38:10;;;;;;;;;;;;;;;19.91;44.97;99971.16;2067004;28;2047;-71
2024/03/10 05:39:12;;;;;;;;;;;;;;;19.91;45.07;99965.41;2067520;28;2060;-70
2024/03/10 05:40:14;;;;;;;;;;;;;;;19.92;45.02;99975.50;2068720;28;1984;-70